Flight Track Log - Related Links

Times and Time Zones

All times are in EDT time to prevent confusion due to time zone crossing. See the UAL619 flight status page for this flight to view local times or setup timezone preferences in your user account.

Time Position Orientation Groundspeed Altitude Reporting Facility
EDT Latitude Longitude Course Direction KTS MPH feet Rate Location/Type
Sun 10:39:33 PM 42.0000 -87.9333 261° West 160 184 1,700  Level Chicago TRACON
Sun 10:40:33 PM 42.0500 -87.9833 323° Northwest 226 260 3,900 2,750 Climbing Chicago TRACON
Sun 10:41:33 PM 42.1167 -88.0333 331° Northwest 271 312 7,200 3,319 Climbing Chicago TRACON
Sun 10:42:00 PM 41.9333 -88.2848 270° West  Level FlightAware Approximate
Sun 10:42:07 PM 42.1419 -88.0514 332° Northwest 261 300 9,100  Level Chicago Center
Sun 10:43:00 PM 41.9173 -88.4133 255° West  Level FlightAware Approximate
Sun 10:43:09 PM 42.1297 -88.1494 260° West 272 313 12,200  Level Chicago Center
Sun 10:44:00 PM 41.9077 -88.5435 261° West  Level FlightAware Approximate
Sun 10:44:10 PM 42.0958 -88.2503 246° West 292 336 13,800  Level Chicago Center
Sun 10:45:11 PM 42.0578 -88.3653 246° West 330 380 16,200 2,262 Climbing Chicago Center
Sun 10:46:12 PM 42.0197 -88.4839 247° West 344 396 18,400 2,508 Climbing Chicago Center
Sun 10:47:13 PM 41.9694 -88.6358 246° West 367 422 21,300 2,508 Climbing Chicago Center
Sun 10:48:14 PM 41.9283 -88.7631 247° West 375 432 23,500 1,951 Climbing Chicago Center
Sun 10:49:16 PM 41.8936 -88.8978 251° West 381 438 25,300 1,659 Climbing Chicago Center
Sun 10:50:17 PM 41.8903 -89.0406 268° West 388 447 26,900 1,770 Climbing Chicago Center
Sun 10:51:18 PM 41.8850 -89.1869 267° West 395 455 28,900 1,967 Climbing Chicago Center
Sun 10:52:19 PM 41.8794 -89.3306 267° West 389 448 30,900 2,016 Climbing Chicago Center
Sun 10:53:20 PM 41.8736 -89.4678 267° West 373 429 33,000 1,525 Climbing Chicago Center
Sun 10:54:21 PM 41.8675 -89.6017 267° West 363 418 34,000 1,131 Climbing Chicago Center
Sun 10:55:22 PM 41.8617 -89.7672 267° West 372 428 35,300 1,131 Climbing Chicago Center
Sun 10:56:23 PM 41.8581 -89.9069 268° West 372 428 36,300 1,131 Climbing Chicago Center
Sun 10:57:24 PM 41.8517 -90.0450 266° West 371 427 37,600 836 Climbing Chicago Center
Sun 10:58:25 PM 41.8461 -90.1797 267° West 366 421 38,000 195 Climbing Chicago Center
Sun 10:59:27 PM 41.8400 -90.3147 267° West 364 419 38,000  Level Chicago Center
Sun 11:00:28 PM 41.8342 -90.4508 267° West 368 423 38,000  Level Chicago Center
Sun 11:01:29 PM 41.8281 -90.5883 267° West 370 426 38,000  Level Chicago Center
Sun 11:02:30 PM 41.8175 -90.7322 264° West 388 447 38,000  Level Chicago Center
Sun 11:03:31 PM 41.8111 -90.8694 266° West 374 430 38,000  Level Chicago Center
Sun 11:04:32 PM 41.8039 -91.0067 266° West 372 428 38,000  Level Chicago Center
Sun 11:05:33 PM 41.7953 -91.1717 266° West 372 428 38,000 -50 Level Chicago Center
Sun 11:06:33 PM 41.7878 -91.3086 266° West 371 427 37,900  Descending Chicago Center
Sun 11:07:34 PM 41.7806 -91.4428 266° West 366 421 38,000 49 Climbing Chicago Center
Sun 11:08:35 PM 41.7719 -91.5842 265° West 375 432 38,000  Level Chicago Center
Sun 11:09:36 PM 41.7644 -91.7267 266° West 383 441 38,000  Level Chicago Center
Sun 11:10:37 PM 41.7558 -91.8675 265° West 382 440 38,000  Level Chicago Center
Sun 11:11:38 PM 41.7467 -92.0078 265° West 381 438 38,000  Level Chicago Center
Sun 11:12:39 PM 41.7383 -92.1503 266° West 384 442 38,000  Level Chicago Center
Sun 11:13:40 PM 41.7297 -92.2919 265° West 385 443 38,000  Level Chicago Center
Sun 11:14:41 PM 41.7200 -92.4353 265° West 389 448 38,000  Level Chicago Center
Sun 11:15:42 PM 41.7106 -92.5775 265° West 386 444 38,000  Level Chicago Center
Sun 11:16:27 PM 41.7036 -92.6931 265° West 388 447 38,000 -112 Level Minneapolis Center
Sun 11:17:29 PM 41.6931 -92.8386 265° West 379 436 37,800 -581 Descending Minneapolis Center
Sun 11:18:31 PM 41.6831 -92.9747 264° West 375 432 36,800 -1,024 Descending Minneapolis Center
Sun 11:19:32 PM 41.6722 -93.1317 265° West 363 418 35,700 -1,024 Descending Minneapolis Center
Sun 11:20:34 PM 41.6633 -93.2642 265° West 361 415 34,700 -829 Descending Minneapolis Center
Sun 11:21:35 PM 41.6525 -93.3992 264° West 367 422 34,000 -344 Descending Minneapolis Center
Sun 11:22:36 PM 41.6431 -93.5383 265° West 375 432 34,000  Level Minneapolis Center
Sun 11:23:37 PM 41.6331 -93.6761 264° West 376 433 34,000 -443 Level Minneapolis Center
Sun 11:24:38 PM 41.6231 -93.8161 265° West 381 438 33,100 -934 Descending Minneapolis Center
Sun 11:25:39 PM 41.6111 -93.9603 264° West 390 449 32,100 -984 Descending Minneapolis Center
Sun 11:26:40 PM 41.6003 -94.1067 264° West 397 457 31,100 -1,024 Descending Minneapolis Center
Sun 11:27:42 PM 41.5850 -94.2717 263° West 401 461 30,000 -1,415 Descending Minneapolis Center
Sun 11:28:43 PM 41.5736 -94.4167 264° West 394 453 28,200 -2,066 Descending Minneapolis Center
Sun 11:29:44 PM 41.5619 -94.5611 264° West 390 449 25,800 -2,361 Descending Minneapolis Center
Sun 11:30:45 PM 41.5497 -94.7025 263° West 385 443 23,400 -2,262 Descending Minneapolis Center
Sun 11:31:46 PM 41.5383 -94.8400 264° West 374 430 21,200 -2,362 Descending Minneapolis Center
Sun 11:32:19 PM 41.5422 -94.9381 273° West 364 419 19,700 -2,164 Descending Minneapolis Center
Sun 11:32:47 PM 41.5275 -94.9725 240° Southwest 363 418 19,000 -2,889 Descending Minneapolis Center
Sun 11:33:13 PM 41.5303 -95.0622 272° West 360 414 17,100 -3,246 Descending Minneapolis Center
Sun 11:33:48 PM 41.5125 -95.1311 251° West 359 413 15,700 -2,459 Descending Minneapolis Center
Sun 11:34:14 PM 41.5125 -95.1897 270° West 359 413 14,600 -2,557 Descending Minneapolis Center
Sun 11:34:49 PM 41.4658 -95.2453 222° Southwest 360 414 13,100 -2,222 Descending Minneapolis Center
Sun 11:35:08 PM 41.4544 -95.2861 250° West 358 412 12,600 -984 Descending Minneapolis Center
Sun 11:35:50 PM 41.4092 -95.3481 226° Southwest 353 406 12,100 -787 Descending Minneapolis Center
Sun 11:36:09 PM 41.3986 -95.3850 249° West 326 375 11,800 -885 Descending Minneapolis Center
Sun 11:36:51 PM 41.3594 -95.4392 226° Southwest 331 381 11,200 -1,200 Descending Minneapolis Center
Sun 11:37:09 PM 41.3519 -95.4686 251° West 282 325 10,600 -1,672 Descending Minneapolis Center
Sun 11:37:52 PM 41.3144 -95.5244 228° Southwest 305 351 9,500 -1,377 Descending Minneapolis Center
Sun 11:38:10 PM 41.3058 -95.5575 251° West 284 327 9,200 -787 Descending Minneapolis Center
Sun 11:38:53 PM 41.2728 -95.6106 230° Southwest 289 333 8,700 -787 Descending Minneapolis Center
Sun 11:39:11 PM 41.2633 -95.6403 247° West 244 281 8,400 -885 Descending Minneapolis Center
Sun 11:39:54 PM 41.2406 -95.6803 233° Southwest 248 285 7,800 -1,515 Descending Minneapolis Center
Sun 11:40:54 PM 41.2225 -95.7458 250° West 217 250 5,800 -2,045 Descending Minneapolis Center
Sun 11:42:06 PM 41.2344 -95.8294 281° West 199 229 3,300 -1,426 Descending Minneapolis Center
Sun 11:42:56 PM 41.2519 -95.8025 49° Northeast 180 207 2,900 -480 Descending Minneapolis Center

Login

Don't have an account? Register now (free) for customized features, flight alerts, and more!